INFORMACIÓN METAR y TAF
METAR FOR EHRD
ADDS - METARS form results

(0709 UTC 20 January 2020)
Data provider http://aviationweather.gov/metar/data/
 
METAR text: EHRD 200655Z AUTO 20002KT 9999 NSC 02/02 Q1047 NOSIG
Conditions at: EHRD (ROTTERDAM AIRPOR, NL) observed 0655 UTC 20 January 2020
Temperature: 2.0°C (36°F)
Dewpoint: 2.0°C (36°F) [RH = 100%]
Pressure (altimeter): 30.92 inches Hg (1047.0 mb)
Winds: from the SSW (200 degrees) at 2 MPH (2 knots; 1.0 m/s)
Visibility: 6 or more miles (10+ km)
Ceiling: at least 12,000 feet AGL
Clouds: sky clear below 12,000 feet AGL
Weather: no significant weather observed at this time

METAR text: EHRD 200625Z AUTO 23002KT 6000 NSC 02/02 Q1047 NOSIG
Conditions at: EHRD (ROTTERDAM AIRPOR, NL) observed 0625 UTC 20 January 2020
Temperature: 2.0°C (36°F)
Dewpoint: 2.0°C (36°F) [RH = 100%]
Pressure (altimeter): 30.92 inches Hg (1047.0 mb)
Winds: from the SW (230 degrees) at 2 MPH (2 knots; 1.0 m/s)
Visibility: 4 miles ( 6 km)
Ceiling: at least 12,000 feet AGL
Clouds: sky clear below 12,000 feet AGL
Weather: no significant weather observed at this time

Forecast for: EHRD (ROTTERDAM AIRPOR, NL)
Text: TAF EHRD 200457Z 2006/2112 23005KT CAVOK
Forecast period: 0600 to 1800 UTC 20 January 2020
Forecast type: FROM: standard forecast or significant change
Winds: from the SW (230 degrees) at 6 MPH (5 knots; 2.6 m/s)
Visibility: 6 or more miles 10+ km)
Ceiling: unknown
Clouds: missing
Weather: NSW  (no significant weather)
Text: BECMG 2018/2020 7000 MIFG
Forecast period: 1800 UTC 20 January 2020 to 1200 UTC 21 January 2020
Forecast type: BECOMING: Conditions expected to become as follows by 2000 UTC 20 January 2020
Winds: from the SW (230 degrees) at 6 MPH (5 knots; 2.6 m/s)
Visibility: 4 miles (7 km)
Ceiling: unknown
Clouds: missing
Weather: MIFG  (shallow fog)
Text: PROB40 2021/2109 1500 BCFG
Forecast period: 2100 UTC 20 January 2020 to 0900 UTC 21 January 2020
Forecast type: PROBABLE: 40 percent likelihood of the following during this time
Visibility: 0.93 miles (1.50 km)
Ceiling: unknown
Clouds: missing
Weather: BCFG  (patches of fog)
Text: PROB30
Forecast period: 2100 UTC 20 January 2020 to 0900 UTC 21 January 2020
Forecast type: TEMPORARY: The following changes expected for less than half the time period
Visibility: 0.31 miles (0.50 km)
Ceiling: 0 feet AGL
Clouds: overcast cloud deck at 0 feet AGL
Weather: FG  (fog)

MAPA DE AEROPUERTO

INFORMACIÓN DE PISTA
Pista 06 Longitud 7218 ft Ancho 148 ft
Elevación 0 ft Umbral desplazado 656 ft Rumbo de pista 57
Pista 24 Longitud 7218 ft Ancho 148 ft
Elevación 0 ft Umbral desplazado 656 ft Rumbo de pista 237

FRECUANCIAS DEL AEROPUERTO
Tipo A/D Nombre SCHIPHOL Frecuencia 121.2 MHZ
Tipo APP Nombre APP Frecuencia 127.025 MHZ
Tipo ATIS Nombre ATIS Frecuencia 110.4 MHZ
Tipo GND Nombre GND Frecuencia 122.175 MHZ
Tipo TWR Nombre TWR Frecuencia 118.2 MHZ

RADIO AYUDAS DEL AEROPUERTO
Tipo NDB Nombre Rotterdam Frecuencia 351 KHZ
Tipo VOR-DME Nombre Rotterdam Frecuencia 110400 KHZ